sensor_id;sensor_type;location;lat;lon;timestamp;P1;durP1;ratioP1;P2;durP2;ratioP2
13388;SDS011;6764;53.250;10.410;2022-08-19T00:00:45;10.23;;;9.30;;
13388;SDS011;6764;53.250;10.410;2022-08-19T00:03:10;12.80;;;9.25;;
13388;SDS011;6764;53.250;10.410;2022-08-19T00:05:36;12.45;;;9.98;;
13388;SDS011;6764;53.250;10.410;2022-08-19T00:08:02;14.05;;;9.73;;
13388;SDS011;6764;53.250;10.410;2022-08-19T00:10:28;10.70;;;8.80;;
13388;SDS011;6764;53.250;10.410;2022-08-19T00:12:53;14.52;;;9.55;;
13388;SDS011;6764;53.250;10.410;2022-08-19T00:15:19;13.30;;;10.48;;
13388;SDS011;6764;53.250;10.410;2022-08-19T00:17:46;11.60;;;9.13;;
13388;SDS011;6764;53.250;10.410;2022-08-19T00:20:13;12.45;;;9.32;;
13388;SDS011;6764;53.250;10.410;2022-08-19T00:22:42;11.88;;;9.13;;
13388;SDS011;6764;53.250;10.410;2022-08-19T00:25:09;10.27;;;8.60;;
13388;SDS011;6764;53.250;10.410;2022-08-19T00:27:35;11.52;;;9.50;;
13388;SDS011;6764;53.250;10.410;2022-08-19T00:30:00;12.57;;;9.05;;
13388;SDS011;6764;53.250;10.410;2022-08-19T00:32:28;12.02;;;8.35;;
13388;SDS011;6764;53.250;10.410;2022-08-19T00:34:54;11.32;;;8.25;;
13388;SDS011;6764;53.250;10.410;2022-08-19T00:37:21;11.48;;;7.65;;
13388;SDS011;6764;53.250;10.410;2022-08-19T00:39:48;9.70;;;7.57;;
13388;SDS011;6764;53.250;10.410;2022-08-19T00:42:14;12.00;;;8.73;;
13388;SDS011;6764;53.250;10.410;2022-08-19T00:44:40;12.88;;;7.97;;
13388;SDS011;6764;53.250;10.410;2022-08-19T00:47:06;9.70;;;8.50;;
13388;SDS011;6764;53.250;10.410;2022-08-19T00:49:34;12.40;;;8.73;;
13388;SDS011;6764;53.250;10.410;2022-08-19T00:52:12;10.18;;;7.65;;
13388;SDS011;6764;53.250;10.410;2022-08-19T00:54:43;10.10;;;8.57;;
13388;SDS011;6764;53.250;10.410;2022-08-19T00:57:18;12.07;;;8.55;;
13388;SDS011;6764;53.250;10.410;2022-08-19T00:59:50;9.50;;;8.27;;
13388;SDS011;6764;53.250;10.410;2022-08-19T01:02:17;12.25;;;8.55;;
13388;SDS011;6764;53.250;10.410;2022-08-19T01:04:43;10.43;;;8.48;;
13388;SDS011;6764;53.250;10.410;2022-08-19T01:07:09;9.57;;;8.38;;
13388;SDS011;6764;53.250;10.410;2022-08-19T01:09:35;9.50;;;7.90;;
13388;SDS011;6764;53.250;10.410;2022-08-19T01:12:01;10.50;;;7.63;;
13388;SDS011;6764;53.250;10.410;2022-08-19T01:14:27;8.77;;;7.88;;
13388;SDS011;6764;53.250;10.410;2022-08-19T01:16:54;9.43;;;8.52;;
13388;SDS011;6764;53.250;10.410;2022-08-19T01:21:57;9.40;;;8.50;;
13388;SDS011;6764;53.250;10.410;2022-08-19T01:24:33;8.85;;;7.95;;
13388;SDS011;6764;53.250;10.410;2022-08-19T01:26:59;10.05;;;8.93;;
13388;SDS011;6764;53.250;10.410;2022-08-19T01:29:28;12.43;;;7.82;;
13388;SDS011;6764;53.250;10.410;2022-08-19T01:31:54;10.98;;;8.75;;
13388;SDS011;6764;53.250;10.410;2022-08-19T01:34:19;9.45;;;7.90;;
13388;SDS011;6764;53.250;10.410;2022-08-19T01:36:46;10.35;;;9.10;;
13388;SDS011;6764;53.250;10.410;2022-08-19T01:39:15;10.40;;;9.43;;
13388;SDS011;6764;53.250;10.410;2022-08-19T01:41:44;11.32;;;9.05;;
13388;SDS011;6764;53.250;10.410;2022-08-19T01:44:10;12.60;;;9.68;;
13388;SDS011;6764;53.250;10.410;2022-08-19T01:46:36;10.88;;;9.48;;
13388;SDS011;6764;53.250;10.410;2022-08-19T01:49:02;13.65;;;10.02;;
13388;SDS011;6764;53.250;10.410;2022-08-19T01:51:29;11.25;;;9.93;;
13388;SDS011;6764;53.250;10.410;2022-08-19T01:53:55;10.30;;;9.20;;
13388;SDS011;6764;53.250;10.410;2022-08-19T01:56:22;9.95;;;8.95;;
13388;SDS011;6764;53.250;10.410;2022-08-19T01:58:49;10.57;;;8.68;;
13388;SDS011;6764;53.250;10.410;2022-08-19T02:01:18;9.63;;;8.18;;
13388;SDS011;6764;53.250;10.410;2022-08-19T02:03:44;9.85;;;8.90;;
13388;SDS011;6764;53.250;10.410;2022-08-19T02:06:11;10.10;;;9.05;;
13388;SDS011;6764;53.250;10.410;2022-08-19T02:08:37;9.65;;;8.75;;
13388;SDS011;6764;53.250;10.410;2022-08-19T02:11:05;11.07;;;8.77;;
13388;SDS011;6764;53.250;10.410;2022-08-19T02:13:31;10.02;;;8.80;;
13388;SDS011;6764;53.250;10.410;2022-08-19T02:15:57;9.73;;;8.63;;
13388;SDS011;6764;53.250;10.410;2022-08-19T02:18:23;10.23;;;8.85;;
13388;SDS011;6764;53.250;10.410;2022-08-19T02:20:49;9.73;;;8.70;;
13388;SDS011;6764;53.250;10.410;2022-08-19T02:23:15;11.35;;;9.20;;
13388;SDS011;6764;53.250;10.410;2022-08-19T02:25:42;9.77;;;8.88;;
13388;SDS011;6764;53.250;10.410;2022-08-19T02:28:10;9.77;;;8.50;;
13388;SDS011;6764;53.250;10.410;2022-08-19T02:30:36;9.60;;;8.55;;
13388;SDS011;6764;53.250;10.410;2022-08-19T02:33:03;10.93;;;9.00;;
13388;SDS011;6764;53.250;10.410;2022-08-19T02:35:29;11.27;;;8.80;;
13388;SDS011;6764;53.250;10.410;2022-08-19T02:37:56;10.10;;;8.90;;
13388;SDS011;6764;53.250;10.410;2022-08-19T02:40:40;9.27;;;8.38;;
13388;SDS011;6764;53.250;10.410;2022-08-19T02:43:07;11.30;;;7.97;;
13388;SDS011;6764;53.250;10.410;2022-08-19T02:45:37;9.68;;;8.73;;
13388;SDS011;6764;53.250;10.410;2022-08-19T02:48:04;10.05;;;8.85;;
13388;SDS011;6764;53.250;10.410;2022-08-19T02:50:30;10.15;;;7.97;;
13388;SDS011;6764;53.250;10.410;2022-08-19T02:52:56;9.93;;;8.02;;
13388;SDS011;6764;53.250;10.410;2022-08-19T02:55:22;12.27;;;8.98;;
13388;SDS011;6764;53.250;10.410;2022-08-19T02:57:48;9.45;;;8.43;;
13388;SDS011;6764;53.250;10.410;2022-08-19T03:00:14;10.80;;;9.35;;
13388;SDS011;6764;53.250;10.410;2022-08-19T03:02:40;10.40;;;8.75;;
13388;SDS011;6764;53.250;10.410;2022-08-19T03:05:06;10.40;;;9.23;;
13388;SDS011;6764;53.250;10.410;2022-08-19T03:07:36;10.68;;;9.15;;
13388;SDS011;6764;53.250;10.410;2022-08-19T03:10:02;10.50;;;9.40;;
13388;SDS011;6764;53.250;10.410;2022-08-19T03:12:29;13.35;;;9.90;;
13388;SDS011;6764;53.250;10.410;2022-08-19T03:14:54;11.73;;;10.30;;
13388;SDS011;6764;53.250;10.410;2022-08-19T03:17:20;13.57;;;11.65;;
13388;SDS011;6764;53.250;10.410;2022-08-19T03:19:46;17.60;;;11.75;;
13388;SDS011;6764;53.250;10.410;2022-08-19T03:22:11;16.55;;;13.05;;
13388;SDS011;6764;53.250;10.410;2022-08-19T03:24:37;14.73;;;12.73;;
13388;SDS011;6764;53.250;10.410;2022-08-19T03:27:03;15.00;;;13.15;;
13388;SDS011;6764;53.250;10.410;2022-08-19T03:29:30;16.33;;;14.00;;
13388;SDS011;6764;53.250;10.410;2022-08-19T03:31:58;16.98;;;14.20;;
13388;SDS011;6764;53.250;10.410;2022-08-19T03:34:27;18.95;;;15.45;;
13388;SDS011;6764;53.250;10.410;2022-08-19T03:36:55;17.83;;;15.60;;
13388;SDS011;6764;53.250;10.410;2022-08-19T03:39:23;24.05;;;16.85;;
13388;SDS011;6764;53.250;10.410;2022-08-19T03:41:50;17.83;;;16.02;;
13388;SDS011;6764;53.250;10.410;2022-08-19T03:44:18;18.83;;;15.45;;
13388;SDS011;6764;53.250;10.410;2022-08-19T03:46:54;22.27;;;15.57;;
13388;SDS011;6764;53.250;10.410;2022-08-19T03:49:22;19.08;;;16.02;;
13388;SDS011;6764;53.250;10.410;2022-08-19T03:51:50;19.52;;;14.23;;
13388;SDS011;6764;53.250;10.410;2022-08-19T03:54:16;18.17;;;14.65;;
13388;SDS011;6764;53.250;10.410;2022-08-19T03:56:45;20.60;;;16.02;;
13388;SDS011;6764;53.250;10.410;2022-08-19T03:59:15;19.17;;;14.38;;
13388;SDS011;6764;53.250;10.410;2022-08-19T04:01:43;20.13;;;14.85;;
13388;SDS011;6764;53.250;10.410;2022-08-19T04:04:09;20.45;;;13.82;;
13388;SDS011;6764;53.250;10.410;2022-08-19T04:06:36;15.88;;;13.18;;
13388;SDS011;6764;53.250;10.410;2022-08-19T04:09:03;19.60;;;13.40;;
13388;SDS011;6764;53.250;10.410;2022-08-19T04:11:33;15.75;;;13.10;;
13388;SDS011;6764;53.250;10.410;2022-08-19T04:14:01;14.50;;;12.07;;
13388;SDS011;6764;53.250;10.410;2022-08-19T04:16:27;16.05;;;12.27;;
13388;SDS011;6764;53.250;10.410;2022-08-19T04:18:54;13.07;;;11.65;;
13388;SDS011;6764;53.250;10.410;2022-08-19T04:21:25;13.30;;;11.55;;
13388;SDS011;6764;53.250;10.410;2022-08-19T04:23:51;13.15;;;11.02;;
13388;SDS011;6764;53.250;10.410;2022-08-19T04:26:19;14.63;;;11.15;;
13388;SDS011;6764;53.250;10.410;2022-08-19T04:28:47;14.73;;;11.70;;
13388;SDS011;6764;53.250;10.410;2022-08-19T04:31:17;14.73;;;10.93;;
13388;SDS011;6764;53.250;10.410;2022-08-19T04:33:46;14.65;;;10.60;;
13388;SDS011;6764;53.250;10.410;2022-08-19T04:36:15;12.55;;;10.18;;
13388;SDS011;6764;53.250;10.410;2022-08-19T04:38:45;15.05;;;11.43;;
13388;SDS011;6764;53.250;10.410;2022-08-19T04:41:12;14.95;;;11.18;;
13388;SDS011;6764;53.250;10.410;2022-08-19T04:43:56;17.98;;;12.95;;
13388;SDS011;6764;53.250;10.410;2022-08-19T04:46:22;21.42;;;14.77;;
13388;SDS011;6764;53.250;10.410;2022-08-19T04:48:47;21.52;;;14.30;;
13388;SDS011;6764;53.250;10.410;2022-08-19T04:51:13;20.73;;;15.77;;
13388;SDS011;6764;53.250;10.410;2022-08-19T04:53:40;25.83;;;16.05;;
13388;SDS011;6764;53.250;10.410;2022-08-19T04:58:34;18.35;;;13.45;;
13388;SDS011;6764;53.250;10.410;2022-08-19T05:01:01;19.48;;;13.00;;
13388;SDS011;6764;53.250;10.410;2022-08-19T05:03:27;21.98;;;15.15;;
13388;SDS011;6764;53.250;10.410;2022-08-19T05:05:58;22.08;;;13.77;;
13388;SDS011;6764;53.250;10.410;2022-08-19T05:08:32;26.65;;;16.33;;
13388;SDS011;6764;53.250;10.410;2022-08-19T05:11:00;33.42;;;19.20;;
13388;SDS011;6764;53.250;10.410;2022-08-19T05:13:26;22.90;;;14.98;;
13388;SDS011;6764;53.250;10.410;2022-08-19T05:15:55;22.65;;;13.88;;
13388;SDS011;6764;53.250;10.410;2022-08-19T05:18:22;19.85;;;12.65;;
13388;SDS011;6764;53.250;10.410;2022-08-19T05:21:07;19.52;;;11.70;;
13388;SDS011;6764;53.250;10.410;2022-08-19T05:23:56;18.20;;;11.70;;
13388;SDS011;6764;53.250;10.410;2022-08-19T05:26:22;19.42;;;12.07;;
13388;SDS011;6764;53.250;10.410;2022-08-19T05:28:50;20.70;;;12.70;;
13388;SDS011;6764;53.250;10.410;2022-08-19T05:31:17;20.63;;;12.50;;
13388;SDS011;6764;53.250;10.410;2022-08-19T05:33:42;15.40;;;11.73;;
13388;SDS011;6764;53.250;10.410;2022-08-19T05:36:08;18.08;;;11.73;;
13388;SDS011;6764;53.250;10.410;2022-08-19T05:38:34;19.33;;;11.77;;
13388;SDS011;6764;53.250;10.410;2022-08-19T05:41:00;17.58;;;11.57;;
13388;SDS011;6764;53.250;10.410;2022-08-19T05:43:33;16.92;;;12.73;;
13388;SDS011;6764;53.250;10.410;2022-08-19T05:45:59;21.33;;;12.52;;
13388;SDS011;6764;53.250;10.410;2022-08-19T05:48:24;21.67;;;12.15;;
13388;SDS011;6764;53.250;10.410;2022-08-19T05:50:51;20.90;;;13.05;;
13388;SDS011;6764;53.250;10.410;2022-08-19T05:53:17;20.08;;;13.63;;
13388;SDS011;6764;53.250;10.410;2022-08-19T05:55:42;21.45;;;14.02;;
13388;SDS011;6764;53.250;10.410;2022-08-19T05:58:08;16.60;;;12.88;;
13388;SDS011;6764;53.250;10.410;2022-08-19T06:00:35;20.02;;;13.60;;
13388;SDS011;6764;53.250;10.410;2022-08-19T06:03:01;18.75;;;13.52;;
13388;SDS011;6764;53.250;10.410;2022-08-19T06:05:29;17.55;;;14.10;;
13388;SDS011;6764;53.250;10.410;2022-08-19T06:07:55;24.55;;;15.10;;
13388;SDS011;6764;53.250;10.410;2022-08-19T06:10:21;23.40;;;13.68;;
13388;SDS011;6764;53.250;10.410;2022-08-19T06:12:47;17.15;;;13.40;;
13388;SDS011;6764;53.250;10.410;2022-08-19T06:15:13;23.60;;;14.48;;
13388;SDS011;6764;53.250;10.410;2022-08-19T06:17:40;22.63;;;15.10;;
13388;SDS011;6764;53.250;10.410;2022-08-19T06:20:09;24.38;;;16.20;;
13388;SDS011;6764;53.250;10.410;2022-08-19T06:22:41;25.30;;;16.77;;
13388;SDS011;6764;53.250;10.410;2022-08-19T06:25:09;22.48;;;17.00;;
13388;SDS011;6764;53.250;10.410;2022-08-19T06:27:35;20.65;;;16.45;;
13388;SDS011;6764;53.250;10.410;2022-08-19T06:30:02;23.88;;;17.95;;
13388;SDS011;6764;53.250;10.410;2022-08-19T06:32:29;28.50;;;21.42;;
13388;SDS011;6764;53.250;10.410;2022-08-19T06:34:55;27.88;;;21.30;;
13388;SDS011;6764;53.250;10.410;2022-08-19T06:37:20;34.70;;;24.20;;
13388;SDS011;6764;53.250;10.410;2022-08-19T06:39:47;36.47;;;24.67;;
13388;SDS011;6764;53.250;10.410;2022-08-19T06:42:13;39.88;;;28.38;;
13388;SDS011;6764;53.250;10.410;2022-08-19T06:44:41;39.55;;;28.38;;
13388;SDS011;6764;53.250;10.410;2022-08-19T06:47:09;36.63;;;29.65;;
13388;SDS011;6764;53.250;10.410;2022-08-19T06:49:36;41.22;;;31.02;;
13388;SDS011;6764;53.250;10.410;2022-08-19T06:52:02;37.95;;;29.63;;
13388;SDS011;6764;53.250;10.410;2022-08-19T06:54:28;35.20;;;28.95;;
13388;SDS011;6764;53.250;10.410;2022-08-19T06:56:54;41.35;;;29.42;;
13388;SDS011;6764;53.250;10.410;2022-08-19T06:59:22;35.45;;;28.35;;
13388;SDS011;6764;53.250;10.410;2022-08-19T07:01:53;31.60;;;26.13;;
13388;SDS011;6764;53.250;10.410;2022-08-19T07:04:22;36.60;;;29.13;;
13388;SDS011;6764;53.250;10.410;2022-08-19T07:06:50;35.85;;;27.40;;
13388;SDS011;6764;53.250;10.410;2022-08-19T07:09:21;33.83;;;28.02;;
13388;SDS011;6764;53.250;10.410;2022-08-19T07:11:48;35.13;;;27.20;;
13388;SDS011;6764;53.250;10.410;2022-08-19T07:14:18;36.17;;;27.23;;
13388;SDS011;6764;53.250;10.410;2022-08-19T07:16:47;30.60;;;25.63;;
13388;SDS011;6764;53.250;10.410;2022-08-19T07:19:15;33.42;;;27.25;;
13388;SDS011;6764;53.250;10.410;2022-08-19T07:21:41;33.00;;;28.90;;
13388;SDS011;6764;53.250;10.410;2022-08-19T07:24:07;32.60;;;28.50;;
13388;SDS011;6764;53.250;10.410;2022-08-19T07:26:37;34.72;;;28.23;;
13388;SDS011;6764;53.250;10.410;2022-08-19T07:29:05;34.92;;;27.38;;
13388;SDS011;6764;53.250;10.410;2022-08-19T07:31:31;35.22;;;27.70;;
13388;SDS011;6764;53.250;10.410;2022-08-19T07:34:02;39.95;;;28.65;;
13388;SDS011;6764;53.250;10.410;2022-08-19T07:36:32;38.53;;;28.88;;
13388;SDS011;6764;53.250;10.410;2022-08-19T07:39:02;36.38;;;28.65;;
13388;SDS011;6764;53.250;10.410;2022-08-19T07:41:32;43.50;;;32.05;;
13388;SDS011;6764;53.250;10.410;2022-08-19T07:43:58;40.63;;;30.55;;
13388;SDS011;6764;53.250;10.410;2022-08-19T07:46:28;39.40;;;31.52;;
13388;SDS011;6764;53.250;10.410;2022-08-19T07:48:57;46.35;;;34.47;;
13388;SDS011;6764;53.250;10.410;2022-08-19T07:51:23;41.55;;;32.55;;
13388;SDS011;6764;53.250;10.410;2022-08-19T07:53:49;39.10;;;31.17;;
13388;SDS011;6764;53.250;10.410;2022-08-19T07:56:16;45.90;;;32.85;;
13388;SDS011;6764;53.250;10.410;2022-08-19T07:58:44;45.85;;;33.10;;
13388;SDS011;6764;53.250;10.410;2022-08-19T08:01:12;41.22;;;31.38;;
13388;SDS011;6764;53.250;10.410;2022-08-19T08:03:41;46.42;;;33.42;;
13388;SDS011;6764;53.250;10.410;2022-08-19T08:06:26;43.70;;;33.50;;
13388;SDS011;6764;53.250;10.410;2022-08-19T08:09:11;44.47;;;35.08;;
13388;SDS011;6764;53.250;10.410;2022-08-19T08:11:41;52.15;;;35.38;;
13388;SDS011;6764;53.250;10.410;2022-08-19T08:14:15;51.67;;;35.20;;
13388;SDS011;6764;53.250;10.410;2022-08-19T08:16:43;46.08;;;33.47;;
13388;SDS011;6764;53.250;10.410;2022-08-19T08:19:10;52.63;;;34.40;;
13388;SDS011;6764;53.250;10.410;2022-08-19T08:21:39;50.28;;;35.65;;
13388;SDS011;6764;53.250;10.410;2022-08-19T08:24:06;48.70;;;35.30;;
13388;SDS011;6764;53.250;10.410;2022-08-19T08:26:31;51.38;;;34.95;;
13388;SDS011;6764;53.250;10.410;2022-08-19T08:28:57;50.90;;;35.45;;
13388;SDS011;6764;53.250;10.410;2022-08-19T08:31:23;45.50;;;33.42;;
13388;SDS011;6764;53.250;10.410;2022-08-19T08:33:49;49.45;;;35.03;;
13388;SDS011;6764;53.250;10.410;2022-08-19T08:36:14;55.50;;;36.35;;
13388;SDS011;6764;53.250;10.410;2022-08-19T08:38:41;49.38;;;34.20;;
13388;SDS011;6764;53.250;10.410;2022-08-19T08:43:57;52.13;;;36.15;;
13388;SDS011;6764;53.250;10.410;2022-08-19T08:46:37;47.20;;;34.80;;
13388;SDS011;6764;53.250;10.410;2022-08-19T08:54:36;50.53;;;31.65;;
13388;SDS011;6764;53.250;10.410;2022-08-19T08:57:18;49.50;;;32.30;;
13388;SDS011;6764;53.250;10.410;2022-08-19T08:59:57;45.58;;;31.33;;
13388;SDS011;6764;53.250;10.410;2022-08-19T09:02:25;47.95;;;33.80;;
13388;SDS011;6764;53.250;10.410;2022-08-19T09:04:51;43.63;;;30.65;;
13388;SDS011;6764;53.250;10.410;2022-08-19T09:13:01;39.17;;;28.63;;
13388;SDS011;6764;53.250;10.410;2022-08-19T09:15:45;41.03;;;29.38;;
13388;SDS011;6764;53.250;10.410;2022-08-19T09:18:14;41.33;;;28.98;;
13388;SDS011;6764;53.250;10.410;2022-08-19T09:20:41;38.97;;;27.15;;
13388;SDS011;6764;53.250;10.410;2022-08-19T09:23:07;38.67;;;28.60;;
13388;SDS011;6764;53.250;10.410;2022-08-19T09:25:34;42.70;;;27.35;;
13388;SDS011;6764;53.250;10.410;2022-08-19T09:28:00;41.67;;;26.35;;
13388;SDS011;6764;53.250;10.410;2022-08-19T09:30:31;38.67;;;26.45;;
13388;SDS011;6764;53.250;10.410;2022-08-19T09:32:59;38.50;;;25.23;;
13388;SDS011;6764;53.250;10.410;2022-08-19T09:35:27;44.25;;;24.50;;
13388;SDS011;6764;53.250;10.410;2022-08-19T09:37:55;37.05;;;25.67;;
13388;SDS011;6764;53.250;10.410;2022-08-19T09:40:22;40.92;;;25.50;;
13388;SDS011;6764;53.250;10.410;2022-08-19T09:42:47;32.90;;;23.20;;
13388;SDS011;6764;53.250;10.410;2022-08-19T09:45:14;36.97;;;24.05;;
13388;SDS011;6764;53.250;10.410;2022-08-19T09:47:41;30.05;;;21.95;;
13388;SDS011;6764;53.250;10.410;2022-08-19T09:50:08;30.77;;;22.40;;
13388;SDS011;6764;53.250;10.410;2022-08-19T09:52:36;31.75;;;22.88;;
13388;SDS011;6764;53.250;10.410;2022-08-19T09:55:05;50.63;;;37.58;;
13388;SDS011;6764;53.250;10.410;2022-08-19T09:57:33;36.03;;;23.80;;
13388;SDS011;6764;53.250;10.410;2022-08-19T09:59:59;37.80;;;24.00;;
13388;SDS011;6764;53.250;10.410;2022-08-19T10:02:24;34.15;;;23.20;;
13388;SDS011;6764;53.250;10.410;2022-08-19T10:04:50;29.85;;;23.05;;
13388;SDS011;6764;53.250;10.410;2022-08-19T10:07:35;34.63;;;24.10;;
13388;SDS011;6764;53.250;10.410;2022-08-19T10:10:03;35.47;;;24.02;;
13388;SDS011;6764;53.250;10.410;2022-08-19T10:12:31;36.03;;;23.83;;
13388;SDS011;6764;53.250;10.410;2022-08-19T10:14:58;36.92;;;27.00;;
13388;SDS011;6764;53.250;10.410;2022-08-19T10:17:24;37.80;;;24.05;;
13388;SDS011;6764;53.250;10.410;2022-08-19T10:19:50;36.35;;;23.60;;
13388;SDS011;6764;53.250;10.410;2022-08-19T10:22:17;44.58;;;32.55;;
13388;SDS011;6764;53.250;10.410;2022-08-19T10:24:43;37.78;;;24.95;;
13388;SDS011;6764;53.250;10.410;2022-08-19T10:27:10;35.83;;;24.95;;
13388;SDS011;6764;53.250;10.410;2022-08-19T10:29:37;35.72;;;25.33;;
13388;SDS011;6764;53.250;10.410;2022-08-19T10:32:04;33.22;;;25.45;;
13388;SDS011;6764;53.250;10.410;2022-08-19T10:34:33;39.05;;;25.67;;
13388;SDS011;6764;53.250;10.410;2022-08-19T10:37:00;40.45;;;26.85;;
13388;SDS011;6764;53.250;10.410;2022-08-19T10:39:26;41.42;;;27.73;;
13388;SDS011;6764;53.250;10.410;2022-08-19T10:41:54;43.28;;;27.40;;
13388;SDS011;6764;53.250;10.410;2022-08-19T10:44:21;47.30;;;28.63;;
13388;SDS011;6764;53.250;10.410;2022-08-19T10:46:48;37.95;;;28.35;;
13388;SDS011;6764;53.250;10.410;2022-08-19T10:49:13;40.28;;;27.27;;
13388;SDS011;6764;53.250;10.410;2022-08-19T10:51:39;38.38;;;27.70;;
13388;SDS011;6764;53.250;10.410;2022-08-19T10:54:25;40.20;;;26.98;;
13388;SDS011;6764;53.250;10.410;2022-08-19T10:57:11;40.38;;;26.98;;
13388;SDS011;6764;53.250;10.410;2022-08-19T10:59:37;42.58;;;27.73;;
13388;SDS011;6764;53.250;10.410;2022-08-19T11:02:04;42.28;;;28.58;;
13388;SDS011;6764;53.250;10.410;2022-08-19T11:04:31;39.78;;;28.50;;
13388;SDS011;6764;53.250;10.410;2022-08-19T11:06:58;39.38;;;29.35;;
13388;SDS011;6764;53.250;10.410;2022-08-19T11:09:24;41.97;;;29.45;;
13388;SDS011;6764;53.250;10.410;2022-08-19T11:11:52;43.97;;;31.15;;
13388;SDS011;6764;53.250;10.410;2022-08-19T11:14:19;41.63;;;30.75;;
13388;SDS011;6764;53.250;10.410;2022-08-19T11:16:46;47.05;;;31.65;;
13388;SDS011;6764;53.250;10.410;2022-08-19T11:19:13;38.75;;;29.70;;
13388;SDS011;6764;53.250;10.410;2022-08-19T11:21:42;46.13;;;32.33;;
13388;SDS011;6764;53.250;10.410;2022-08-19T11:24:10;50.03;;;32.55;;
13388;SDS011;6764;53.250;10.410;2022-08-19T11:26:38;44.70;;;30.85;;
13388;SDS011;6764;53.250;10.410;2022-08-19T11:29:05;44.20;;;32.10;;
13388;SDS011;6764;53.250;10.410;2022-08-19T11:31:36;40.97;;;29.45;;
13388;SDS011;6764;53.250;10.410;2022-08-19T11:34:05;40.33;;;28.58;;
13388;SDS011;6764;53.250;10.410;2022-08-19T11:36:32;40.17;;;28.23;;
13388;SDS011;6764;53.250;10.410;2022-08-19T11:38:59;36.15;;;27.30;;
13388;SDS011;6764;53.250;10.410;2022-08-19T11:41:25;41.95;;;28.65;;
13388;SDS011;6764;53.250;10.410;2022-08-19T11:43:52;37.72;;;27.65;;
13388;SDS011;6764;53.250;10.410;2022-08-19T11:46:21;43.33;;;30.50;;
13388;SDS011;6764;53.250;10.410;2022-08-19T11:48:48;39.80;;;29.45;;
13388;SDS011;6764;53.250;10.410;2022-08-19T11:51:16;38.00;;;29.27;;
13388;SDS011;6764;53.250;10.410;2022-08-19T11:53:43;40.88;;;30.38;;
13388;SDS011;6764;53.250;10.410;2022-08-19T11:56:10;42.83;;;29.48;;
13388;SDS011;6764;53.250;10.410;2022-08-19T11:58:37;42.38;;;30.95;;
13388;SDS011;6764;53.250;10.410;2022-08-19T12:01:07;38.22;;;32.83;;
13388;SDS011;6764;53.250;10.410;2022-08-19T12:03:36;43.15;;;32.42;;
13388;SDS011;6764;53.250;10.410;2022-08-19T12:06:03;44.00;;;34.78;;
13388;SDS011;6764;53.250;10.410;2022-08-19T12:08:38;42.15;;;31.42;;
13388;SDS011;6764;53.250;10.410;2022-08-19T12:11:04;38.65;;;30.63;;
13388;SDS011;6764;53.250;10.410;2022-08-19T12:13:32;38.75;;;30.55;;
13388;SDS011;6764;53.250;10.410;2022-08-19T12:15:59;37.28;;;31.27;;
13388;SDS011;6764;53.250;10.410;2022-08-19T12:18:25;39.03;;;30.27;;
13388;SDS011;6764;53.250;10.410;2022-08-19T12:20:52;38.50;;;31.23;;
13388;SDS011;6764;53.250;10.410;2022-08-19T12:23:19;39.25;;;29.83;;
13388;SDS011;6764;53.250;10.410;2022-08-19T12:25:46;35.65;;;31.15;;
13388;SDS011;6764;53.250;10.410;2022-08-19T12:28:16;38.30;;;32.28;;
13388;SDS011;6764;53.250;10.410;2022-08-19T12:30:46;46.30;;;39.88;;
13388;SDS011;6764;53.250;10.410;2022-08-19T12:33:12;38.30;;;34.28;;
13388;SDS011;6764;53.250;10.410;2022-08-19T12:35:39;36.75;;;32.20;;
13388;SDS011;6764;53.250;10.410;2022-08-19T12:38:07;38.20;;;31.52;;
13388;SDS011;6764;53.250;10.410;2022-08-19T12:40:33;35.75;;;31.77;;
13388;SDS011;6764;53.250;10.410;2022-08-19T12:42:59;36.60;;;31.85;;
13388;SDS011;6764;53.250;10.410;2022-08-19T12:45:24;33.97;;;29.90;;
13388;SDS011;6764;53.250;10.410;2022-08-19T12:47:50;37.20;;;33.15;;
13388;SDS011;6764;53.250;10.410;2022-08-19T12:50:17;38.58;;;33.08;;
13388;SDS011;6764;53.250;10.410;2022-08-19T12:52:44;41.05;;;35.97;;
13388;SDS011;6764;53.250;10.410;2022-08-19T12:55:10;49.70;;;42.28;;
13388;SDS011;6764;53.250;10.410;2022-08-19T12:57:37;38.53;;;33.95;;
13388;SDS011;6764;53.250;10.410;2022-08-19T13:00:04;38.85;;;32.95;;
13388;SDS011;6764;53.250;10.410;2022-08-19T13:02:35;36.50;;;32.60;;
13388;SDS011;6764;53.250;10.410;2022-08-19T13:05:02;36.63;;;31.20;;
13388;SDS011;6764;53.250;10.410;2022-08-19T13:07:28;33.03;;;29.45;;
13388;SDS011;6764;53.250;10.410;2022-08-19T13:09:55;34.20;;;30.38;;
13388;SDS011;6764;53.250;10.410;2022-08-19T13:12:20;32.92;;;29.15;;
13388;SDS011;6764;53.250;10.410;2022-08-19T13:14:46;35.42;;;27.67;;
13388;SDS011;6764;53.250;10.410;2022-08-19T13:17:16;31.23;;;27.92;;
13388;SDS011;6764;53.250;10.410;2022-08-19T13:19:41;32.45;;;27.67;;
13388;SDS011;6764;53.250;10.410;2022-08-19T13:22:07;33.78;;;27.80;;
13388;SDS011;6764;53.250;10.410;2022-08-19T13:24:32;30.55;;;27.38;;
13388;SDS011;6764;53.250;10.410;2022-08-19T13:26:59;31.45;;;27.70;;
13388;SDS011;6764;53.250;10.410;2022-08-19T13:29:25;33.45;;;30.13;;
13388;SDS011;6764;53.250;10.410;2022-08-19T13:32:09;30.70;;;27.40;;
13388;SDS011;6764;53.250;10.410;2022-08-19T13:34:53;29.48;;;26.48;;
13388;SDS011;6764;53.250;10.410;2022-08-19T13:37:19;31.73;;;28.02;;
13388;SDS011;6764;53.250;10.410;2022-08-19T13:40:04;32.78;;;28.35;;
13388;SDS011;6764;53.250;10.410;2022-08-19T13:42:31;28.35;;;25.27;;
13388;SDS011;6764;53.250;10.410;2022-08-19T13:44:57;29.95;;;24.92;;
13388;SDS011;6764;53.250;10.410;2022-08-19T13:47:23;27.13;;;24.23;;
13388;SDS011;6764;53.250;10.410;2022-08-19T13:49:49;25.88;;;23.17;;
13388;SDS011;6764;53.250;10.410;2022-08-19T13:52:14;26.80;;;23.95;;
13388;SDS011;6764;53.250;10.410;2022-08-19T13:54:40;40.42;;;36.22;;
13388;SDS011;6764;53.250;10.410;2022-08-19T13:57:06;28.90;;;25.23;;
13388;SDS011;6764;53.250;10.410;2022-08-19T13:59:31;27.02;;;24.23;;
13388;SDS011;6764;53.250;10.410;2022-08-19T14:01:58;27.33;;;24.52;;
13388;SDS011;6764;53.250;10.410;2022-08-19T14:04:25;25.92;;;23.17;;
13388;SDS011;6764;53.250;10.410;2022-08-19T14:06:50;25.63;;;23.02;;
13388;SDS011;6764;53.250;10.410;2022-08-19T14:09:16;25.10;;;22.25;;
13388;SDS011;6764;53.250;10.410;2022-08-19T14:11:42;26.05;;;23.30;;
13388;SDS011;6764;53.250;10.410;2022-08-19T14:14:07;24.33;;;21.98;;
13388;SDS011;6764;53.250;10.410;2022-08-19T14:16:33;26.17;;;23.48;;
13388;SDS011;6764;53.250;10.410;2022-08-19T14:18:58;25.75;;;23.13;;
13388;SDS011;6764;53.250;10.410;2022-08-19T14:21:24;23.27;;;21.02;;
13388;SDS011;6764;53.250;10.410;2022-08-19T14:23:50;25.95;;;22.10;;
13388;SDS011;6764;53.250;10.410;2022-08-19T14:26:18;26.52;;;23.83;;
13388;SDS011;6764;53.250;10.410;2022-08-19T14:28:44;25.80;;;23.35;;
13388;SDS011;6764;53.250;10.410;2022-08-19T14:31:11;25.30;;;22.48;;
13388;SDS011;6764;53.250;10.410;2022-08-19T14:33:39;24.35;;;22.02;;
13388;SDS011;6764;53.250;10.410;2022-08-19T14:36:05;22.80;;;20.55;;
13388;SDS011;6764;53.250;10.410;2022-08-19T14:38:31;21.90;;;19.70;;
13388;SDS011;6764;53.250;10.410;2022-08-19T14:41:10;20.73;;;18.63;;
13388;SDS011;6764;53.250;10.410;2022-08-19T14:43:38;24.17;;;20.42;;
13388;SDS011;6764;53.250;10.410;2022-08-19T14:46:04;20.23;;;18.23;;
13388;SDS011;6764;53.250;10.410;2022-08-19T14:48:29;24.38;;;22.00;;